createdAt,value
2022-09-28T00:00:54.659Z,98682.16
2022-09-28T00:04:01.013Z,98690.03
2022-09-28T00:07:03.466Z,98701.66
2022-09-28T00:10:06.660Z,98698.97
2022-09-28T00:13:09.355Z,98699.78
2022-09-28T00:16:14.707Z,98695.00
2022-09-28T00:19:17.752Z,98691.63
2022-09-28T00:22:20.619Z,98687.16
2022-09-28T00:25:24.978Z,98685.13
2022-09-28T00:28:27.799Z,98671.28
2022-09-28T00:31:32.832Z,98673.50
2022-09-28T00:34:39.070Z,98680.06
2022-09-28T00:37:41.509Z,98685.19
2022-09-28T00:40:44.417Z,98683.19
2022-09-28T00:43:47.005Z,98675.37
2022-09-28T00:47:08.723Z,98678.88
2022-09-28T00:50:17.611Z,98682.19
2022-09-28T00:53:24.450Z,98690.22
2022-09-28T00:56:28.968Z,98697.94
2022-09-28T00:59:32.809Z,98685.22
2022-09-28T01:02:35.503Z,98689.75
2022-09-28T01:05:39.822Z,98692.03
2022-09-28T01:08:44.623Z,98684.34
2022-09-28T01:11:48.467Z,98698.94
2022-09-28T01:14:52.473Z,98699.97
2022-09-28T01:18:01.351Z,98699.50
2022-09-28T01:21:12.819Z,98699.34
2022-09-28T01:24:47.643Z,98705.03
2022-09-28T01:27:52.473Z,98699.91
2022-09-28T01:31:11.406Z,98712.09
2022-09-28T01:34:18.932Z,98706.97
2022-09-28T01:37:27.755Z,98703.84
2022-09-28T01:40:32.172Z,98706.50
2022-09-28T01:43:39.700Z,98709.03
2022-09-28T01:46:44.858Z,98717.25
2022-09-28T01:49:52.820Z,98711.56
2022-09-28T01:53:03.102Z,98715.88
2022-09-28T01:56:28.293Z,98721.09
2022-09-28T01:59:33.712Z,98733.56
2022-09-28T02:02:41.297Z,98729.44
2022-09-28T02:05:49.270Z,98732.81
2022-09-28T02:08:59.320Z,98732.19
2022-09-28T02:12:18.529Z,98730.72
2022-09-28T02:15:27.679Z,98730.78
2022-09-28T02:18:30.721Z,98734.09
2022-09-28T02:21:40.046Z,98730.69
2022-09-28T02:25:16.954Z,98725.56
2022-09-28T02:28:19.487Z,98726.84
2022-09-28T02:31:22.345Z,98733.38
2022-09-28T02:34:25.184Z,98740.66
2022-09-28T02:37:28.290Z,98741.28
2022-09-28T02:40:35.103Z,98742.84
2022-09-28T02:43:51.583Z,98745.13
2022-09-28T02:47:00.048Z,98749.19
2022-09-28T02:50:10.925Z,98749.69
2022-09-28T02:53:13.336Z,98740.78
2022-09-28T02:56:36.256Z,98738.28
2022-09-28T03:00:08.693Z,98739.19
2022-09-28T03:03:31.362Z,98728.31
2022-09-28T03:06:37.645Z,98734.69
2022-09-28T03:09:44.930Z,98750.06
2022-09-28T03:12:48.493Z,98747.03
2022-09-28T03:15:51.532Z,98757.66
2022-09-28T03:18:54.147Z,98755.97
2022-09-28T03:21:56.987Z,98759.69
2022-09-28T03:24:59.600Z,98767.41
2022-09-28T03:28:02.906Z,98760.84
2022-09-28T03:31:06.592Z,98760.81
2022-09-28T03:34:09.339Z,98763.47
2022-09-28T03:37:11.773Z,98756.59
2022-09-28T03:40:14.908Z,98761.91
2022-09-28T03:43:17.475Z,98752.69
2022-09-28T03:46:20.707Z,98769.56
2022-09-28T03:49:23.597Z,98758.72
2022-09-28T03:52:26.461Z,98762.84
2022-09-28T03:55:29.042Z,98760.81
2022-09-28T03:58:32.562Z,98769.25
2022-09-28T04:01:35.095Z,98760.81
2022-09-28T04:04:37.893Z,98768.16
2022-09-28T04:07:40.426Z,98775.94
2022-09-28T04:10:43.299Z,98774.13
2022-09-28T04:13:49.658Z,98769.62
2022-09-28T04:16:54.841Z,98763.12
2022-09-28T04:19:58.020Z,98761.84
2022-09-28T04:23:01.219Z,98762.78
2022-09-28T04:26:11.905Z,98757.34
2022-09-28T04:29:16.068Z,98768.63
2022-09-28T04:32:18.789Z,98775.78
2022-09-28T04:35:21.638Z,98768.63
2022-09-28T04:38:48.449Z,98759.84
2022-09-28T04:41:48.209Z,98770.28
2022-09-28T04:44:50.791Z,98763.31
2022-09-28T04:47:53.953Z,98760.22
2022-09-28T04:50:58.712Z,98765.06
2022-09-28T04:54:02.297Z,98761.13
2022-09-28T04:57:06.136Z,98774.06
2022-09-28T05:00:10.572Z,98772.50
2022-09-28T05:03:14.346Z,98767.00
2022-09-28T05:06:18.064Z,98764.66
2022-09-28T05:09:20.566Z,98776.66
2022-09-28T05:12:23.960Z,98770.41
2022-09-28T05:15:26.460Z,98771.59
2022-09-28T05:18:29.403Z,98778.00
2022-09-28T05:21:32.412Z,98784.41
2022-09-28T05:24:35.282Z,98782.84
2022-09-28T05:27:37.897Z,98792.28
2022-09-28T05:30:40.848Z,98779.09
2022-09-28T05:33:43.497Z,98784.22
2022-09-28T05:36:46.859Z,98774.16
2022-09-28T05:39:49.419Z,98778.84
2022-09-28T05:42:52.244Z,98774.22
2022-09-28T05:45:55.926Z,98776.19
2022-09-28T05:49:00.353Z,98775.72
2022-09-28T05:52:03.534Z,98767.03
2022-09-28T05:55:07.938Z,98771.69
2022-09-28T05:58:10.732Z,98771.78
2022-09-28T06:01:13.721Z,98768.94
2022-09-28T06:04:16.706Z,98775.69
2022-09-28T06:07:20.886Z,98775.13
2022-09-28T06:10:28.116Z,98768.09
2022-09-28T06:13:34.542Z,98764.78
2022-09-28T06:16:40.425Z,98767.78
2022-09-28T06:19:45.908Z,98767.78
2022-09-28T06:22:55.946Z,98772.88
2022-09-28T06:25:59.363Z,98780.72
2022-09-28T06:29:03.380Z,98779.16
2022-09-28T06:32:07.429Z,98774.47
2022-09-28T06:35:11.076Z,98779.22
2022-09-28T06:38:13.677Z,98778.28
2022-09-28T06:41:16.765Z,98782.06
2022-09-28T06:44:20.257Z,98784.44
2022-09-28T06:47:24.900Z,98779.66
2022-09-28T06:50:32.223Z,98792.44
2022-09-28T06:53:37.491Z,98791.72
2022-09-28T06:56:42.838Z,98785.66
2022-09-28T06:59:46.629Z,98780.38
2022-09-28T07:02:49.211Z,98790.63
2022-09-28T07:05:54.325Z,98787.56
2022-09-28T07:09:27.948Z,98793.91
2022-09-28T07:12:35.269Z,98795.16
2022-09-28T07:15:38.490Z,98792.50
2022-09-28T07:18:42.330Z,98792.59
2022-09-28T07:21:47.869Z,98795.91
2022-09-28T07:24:57.679Z,98795.69
2022-09-28T07:28:02.540Z,98798.66
2022-09-28T07:31:05.556Z,98801.56
2022-09-28T07:34:08.393Z,98795.91
2022-09-28T07:37:13.351Z,98796.91
2022-09-28T07:40:34.810Z,98791.00
2022-09-28T07:43:41.543Z,98797.81
2022-09-28T07:46:44.306Z,98790.88
2022-09-28T07:49:49.419Z,98780.19
2022-09-28T07:52:52.180Z,98785.31
2022-09-28T07:55:57.546Z,98786.97
2022-09-28T07:59:00.628Z,98790.00
2022-09-28T08:02:03.982Z,98802.31
2022-09-28T08:05:10.025Z,98796.16
2022-09-28T08:08:13.326Z,98787.47
2022-09-28T08:11:18.799Z,98800.78
2022-09-28T08:14:22.293Z,98796.97
2022-09-28T08:17:25.797Z,98804.09
2022-09-28T08:20:51.558Z,98793.94
2022-09-28T08:23:54.745Z,98806.41
2022-09-28T08:26:57.212Z,98788.81
2022-09-28T08:30:03.705Z,98774.72
2022-09-28T08:33:07.785Z,98763.44
2022-09-28T08:36:12.897Z,98776.50
2022-09-28T08:39:16.512Z,98765.50
2022-09-28T08:42:34.163Z,98759.25
2022-09-28T08:45:36.931Z,98752.44
2022-09-28T08:49:13.398Z,98755.69
2022-09-28T08:52:23.501Z,98758.25
2022-09-28T08:55:31.263Z,98775.81
2022-09-28T08:58:37.177Z,98773.94
2022-09-28T09:01:58.801Z,98775.00
2022-09-28T09:05:07.065Z,98771.69
2022-09-28T09:08:31.958Z,98772.47
2022-09-28T09:12:16.871Z,98773.59
2022-09-28T09:15:40.837Z,98770.34
2022-09-28T09:19:22.758Z,98775.59
2022-09-28T09:22:36.247Z,98775.19
2022-09-28T09:25:43.953Z,98766.13
2022-09-28T09:29:15.647Z,98771.50
2022-09-28T09:32:41.232Z,98768.16
2022-09-28T09:35:59.204Z,98756.50
2022-09-28T09:39:28.156Z,98759.31
2022-09-28T09:42:46.052Z,98766.94
2022-09-28T09:46:16.876Z,98762.12
2022-09-28T09:49:35.140Z,98754.62
2022-09-28T09:52:54.926Z,98759.53
2022-09-28T09:56:03.668Z,98756.16
2022-09-28T09:59:08.943Z,98757.53
2022-09-28T10:02:26.377Z,98763.81
2022-09-28T10:05:31.920Z,98757.03
2022-09-28T10:08:39.964Z,98770.00
2022-09-28T10:11:45.843Z,98769.88
2022-09-28T10:14:50.604Z,98768.56
2022-09-28T10:17:58.829Z,98766.13
2022-09-28T10:21:17.400Z,98764.72
2022-09-28T10:24:31.624Z,98772.03
2022-09-28T10:27:36.044Z,98771.44
2022-09-28T10:30:44.228Z,98770.41
2022-09-28T10:33:46.917Z,98772.63
2022-09-28T10:36:58.361Z,98769.91
2022-09-28T10:40:01.659Z,98757.03
2022-09-28T10:43:36.990Z,98752.31
2022-09-28T10:46:41.567Z,98754.97
2022-09-28T10:49:47.418Z,98761.16
2022-09-28T10:52:50.152Z,98760.69
2022-09-28T10:56:03.183Z,98763.75
2022-09-28T10:59:32.506Z,98762.62
2022-09-28T11:02:37.878Z,98766.66
2022-09-28T11:05:43.275Z,98757.66
2022-09-28T11:08:49.696Z,98758.09
2022-09-28T11:11:52.678Z,98750.84
2022-09-28T11:15:03.953Z,98754.91
2022-09-28T11:18:26.471Z,98749.78
2022-09-28T11:21:32.468Z,98748.25
2022-09-28T11:24:35.974Z,98737.63
2022-09-28T11:27:39.266Z,98738.44
2022-09-28T11:30:48.491Z,98729.31
2022-09-28T11:34:02.921Z,98724.91
2022-09-28T11:37:16.705Z,98736.44
2022-09-28T11:40:29.914Z,98722.03
2022-09-28T11:43:47.753Z,98731.50
2022-09-28T11:47:03.872Z,98725.66
2022-09-28T11:50:23.672Z,98726.06
2022-09-28T11:53:44.074Z,98729.25
2022-09-28T11:56:48.765Z,98729.53
2022-09-28T12:00:00.675Z,98725.00
2022-09-28T12:03:19.917Z,98725.97
2022-09-28T12:06:28.809Z,98718.75
2022-09-28T12:09:46.145Z,98710.09
2022-09-28T12:13:11.562Z,98706.16
2022-09-28T12:16:53.100Z,98698.09
2022-09-28T12:19:58.244Z,98692.88
2022-09-28T12:23:21.186Z,98689.03
2022-09-28T12:26:37.182Z,98685.03
2022-09-28T12:29:53.020Z,98679.44
2022-09-28T12:33:12.349Z,98667.37
2022-09-28T12:36:33.546Z,98676.44
2022-09-28T12:39:57.934Z,98670.97
2022-09-28T12:43:22.289Z,98662.78
2022-09-28T12:46:54.894Z,98656.12
2022-09-28T12:53:44.504Z,98647.66
2022-09-28T12:57:05.189Z,98647.66
2022-09-28T13:00:24.615Z,98647.16
2022-09-28T13:03:32.548Z,98634.41
2022-09-28T13:06:41.305Z,98630.81
2022-09-28T13:09:49.844Z,98637.91
2022-09-28T13:13:04.368Z,98634.38
2022-09-28T13:16:18.603Z,98632.69
2022-09-28T13:19:27.916Z,98631.06
2022-09-28T13:22:44.371Z,98635.56
2022-09-28T13:25:52.207Z,98641.22
2022-09-28T13:28:59.357Z,98641.09
2022-09-28T13:32:03.277Z,98644.66
2022-09-28T13:35:06.415Z,98648.09
2022-09-28T13:38:16.184Z,98636.31
2022-09-28T13:41:24.872Z,98640.91
2022-09-28T13:44:59.521Z,98645.16
2022-09-28T13:48:08.178Z,98636.37
2022-09-28T13:51:30.597Z,98627.97
2022-09-28T13:54:48.235Z,98636.50
2022-09-28T13:57:56.799Z,98630.31
2022-09-28T14:01:17.404Z,98634.47
2022-09-28T14:04:22.182Z,98641.66
2022-09-28T14:07:33.670Z,98638.47
2022-09-28T14:10:51.686Z,98643.78
2022-09-28T14:14:13.886Z,98644.13
2022-09-28T14:17:19.784Z,98646.31
2022-09-28T14:20:23.827Z,98642.72
2022-09-28T14:23:43.260Z,98634.13
2022-09-28T14:27:06.123Z,98636.75
2022-09-28T14:30:11.812Z,98631.63
2022-09-28T14:33:33.121Z,98634.94
2022-09-28T14:37:01.574Z,98625.91
2022-09-28T14:40:34.962Z,98621.56
2022-09-28T14:43:58.226Z,98621.56
2022-09-28T14:47:38.407Z,98614.53
2022-09-28T14:50:41.400Z,98614.44
2022-09-28T14:53:45.439Z,98612.72
2022-09-28T14:56:57.065Z,98620.25
2022-09-28T15:00:00.593Z,98616.16
2022-09-28T15:03:07.795Z,98609.72
2022-09-28T15:06:16.275Z,98611.91
2022-09-28T15:09:38.454Z,98608.78
2022-09-28T15:12:43.650Z,98611.75
2022-09-28T15:15:52.482Z,98614.91
2022-09-28T15:19:23.678Z,98614.16
2022-09-28T15:22:27.120Z,98596.25
2022-09-28T15:25:31.971Z,98611.47
2022-09-28T15:28:44.948Z,98603.53
2022-09-28T15:31:50.009Z,98608.91
2022-09-28T15:34:57.141Z,98607.66
2022-09-28T15:37:59.663Z,98604.91
2022-09-28T15:41:06.977Z,98586.00
2022-09-28T15:44:12.521Z,98595.47
2022-09-28T15:47:26.160Z,98601.88
2022-09-28T15:50:29.916Z,98592.91
2022-09-28T15:53:33.318Z,98593.28
2022-09-28T15:56:52.935Z,98598.78
2022-09-28T15:59:59.528Z,98598.50
2022-09-28T16:03:05.605Z,98611.59
2022-09-28T16:06:10.671Z,98601.19
2022-09-28T16:09:32.260Z,98596.66
2022-09-28T16:12:36.611Z,98592.91
2022-09-28T16:15:39.497Z,98600.28
2022-09-28T16:18:48.129Z,98600.41
2022-09-28T16:21:55.868Z,98601.91
2022-09-28T16:25:01.588Z,98598.75
2022-09-28T16:28:04.985Z,98606.44
2022-09-28T16:31:14.129Z,98604.34
2022-09-28T16:34:20.022Z,98606.91
2022-09-28T16:37:32.663Z,98604.81
2022-09-28T16:40:39.191Z,98608.19
2022-09-28T16:43:41.961Z,98598.56
2022-09-28T16:46:45.033Z,98594.00
2022-09-28T16:49:48.476Z,98602.53
2022-09-28T16:53:19.317Z,98595.66
2022-09-28T16:56:22.236Z,98601.16
2022-09-28T16:59:24.769Z,98599.28
2022-09-28T17:02:46.291Z,98607.91
2022-09-28T17:05:51.019Z,98607.31
2022-09-28T17:08:58.419Z,98609.75
2022-09-28T17:12:01.956Z,98614.53
2022-09-28T17:15:05.171Z,98615.69
2022-09-28T17:18:07.742Z,98601.47
2022-09-28T17:21:16.078Z,98609.75
2022-09-28T17:24:19.301Z,98600.91
2022-09-28T17:27:22.322Z,98596.81
2022-09-28T17:30:25.942Z,98603.34
2022-09-28T17:33:29.283Z,98611.25
2022-09-28T17:36:31.862Z,98607.63
2022-09-28T17:39:35.269Z,98613.66
2022-09-28T17:42:37.779Z,98620.59
2022-09-28T17:45:40.998Z,98605.41
2022-09-28T17:48:46.701Z,98618.91
2022-09-28T17:51:50.358Z,98623.31
2022-09-28T17:54:52.790Z,98620.84
2022-09-28T17:57:56.050Z,98629.94
2022-09-28T18:00:58.604Z,98619.28
2022-09-28T18:04:06.984Z,98632.75
2022-09-28T18:07:12.169Z,98624.56
2022-09-28T18:10:18.240Z,98628.72
2022-09-28T18:13:20.694Z,98630.22
2022-09-28T18:16:23.547Z,98630.06
2022-09-28T18:19:31.778Z,98633.03
2022-09-28T18:22:35.183Z,98632.88
2022-09-28T18:25:41.504Z,98631.25
2022-09-28T18:28:44.412Z,98639.75
2022-09-28T18:31:48.761Z,98636.69
2022-09-28T18:34:51.683Z,98635.50
2022-09-28T18:37:54.351Z,98637.84
2022-09-28T18:40:57.645Z,98638.28
2022-09-28T18:44:00.947Z,98636.06
2022-09-28T18:47:03.861Z,98641.00
2022-09-28T18:50:07.103Z,98644.34
2022-09-28T18:53:12.653Z,98651.97
2022-09-28T18:56:19.479Z,98653.69
2022-09-28T18:59:22.521Z,98647.06
2022-09-28T19:02:25.190Z,98643.19
2022-09-28T19:05:28.675Z,98654.38
2022-09-28T19:08:31.144Z,98647.19
2022-09-28T19:11:34.435Z,98651.50
2022-09-28T19:14:36.973Z,98658.69
2022-09-28T19:17:41.229Z,98662.25
2022-09-28T19:20:44.619Z,98662.63
2022-09-28T19:23:49.690Z,98655.66
2022-09-28T19:26:53.655Z,98664.34
2022-09-28T19:29:56.413Z,98659.81
2022-09-28T19:32:59.174Z,98660.25
2022-09-28T19:36:04.852Z,98662.31
2022-09-28T19:39:07.895Z,98662.75
2022-09-28T19:42:10.804Z,98654.94
2022-09-28T19:45:13.402Z,98655.75
2022-09-28T19:48:16.158Z,98660.31
2022-09-28T19:51:19.571Z,98654.59
2022-09-28T19:54:25.529Z,98650.66
2022-09-28T19:57:30.520Z,98653.34
2022-09-28T20:00:33.870Z,98643.91
2022-09-28T20:03:38.611Z,98650.28
2022-09-28T20:06:41.724Z,98647.38
2022-09-28T20:09:45.904Z,98642.09
2022-09-28T20:12:48.315Z,98643.94
2022-09-28T20:15:51.239Z,98634.50
2022-09-28T20:18:58.324Z,98635.31
2022-09-28T20:22:02.767Z,98624.62
2022-09-28T20:25:06.336Z,98629.75
2022-09-28T20:28:09.218Z,98628.72
2022-09-28T20:31:17.261Z,98621.13
2022-09-28T20:34:20.135Z,98631.41
2022-09-28T20:37:25.313Z,98624.03
2022-09-28T20:40:28.258Z,98620.09
2022-09-28T20:43:31.530Z,98628.34
2022-09-28T20:46:35.491Z,98623.41
2022-09-28T20:49:38.139Z,98615.41
2022-09-28T20:52:41.032Z,98615.63
2022-09-28T20:55:44.266Z,98615.19
2022-09-28T20:58:47.867Z,98613.97
2022-09-28T21:01:58.252Z,98607.00
2022-09-28T21:05:02.096Z,98609.25
2022-09-28T21:08:04.601Z,98615.00
2022-09-28T21:11:07.584Z,98593.44
2022-09-28T21:14:10.416Z,98599.37
2022-09-28T21:17:13.329Z,98595.88
2022-09-28T21:20:15.888Z,98600.84
2022-09-28T21:23:22.765Z,98599.63
2022-09-28T21:26:28.946Z,98595.31
2022-09-28T21:29:32.001Z,98589.34
2022-09-28T21:32:35.202Z,98576.19
2022-09-28T21:35:40.837Z,98581.09
2022-09-28T21:38:45.663Z,98576.56
2022-09-28T21:41:48.561Z,98575.16
2022-09-28T21:44:51.062Z,98576.19
2022-09-28T21:47:54.002Z,98581.53
2022-09-28T21:51:00.516Z,98575.16
2022-09-28T21:54:03.574Z,98569.81
2022-09-28T21:57:06.446Z,98570.84
2022-09-28T22:00:11.586Z,98579.94
2022-09-28T22:03:16.085Z,98586.09
2022-09-28T22:06:20.045Z,98587.94
2022-09-28T22:09:22.935Z,98585.88
2022-09-28T22:12:25.438Z,98590.22
2022-09-28T22:15:28.225Z,98593.50
2022-09-28T22:18:31.652Z,98591.06
2022-09-28T22:21:35.445Z,98591.87
2022-09-28T22:24:37.903Z,98591.44
2022-09-28T22:27:40.680Z,98587.78
2022-09-28T22:30:44.012Z,98582.81
2022-09-28T22:33:46.900Z,98588.38
2022-09-28T22:36:51.567Z,98577.69
2022-09-28T22:40:00.774Z,98578.91
2022-09-28T22:43:03.286Z,98577.28
2022-09-28T22:46:08.705Z,98581.41
2022-09-28T22:49:12.047Z,98583.44
2022-09-28T22:52:14.841Z,98571.94
2022-09-28T22:55:17.330Z,98567.63
2022-09-28T22:58:20.383Z,98561.28
2022-09-28T23:01:25.276Z,98568.84
2022-09-28T23:04:28.253Z,98558.78
2022-09-28T23:07:30.695Z,98568.63
2022-09-28T23:10:36.535Z,98570.88
2022-09-28T23:13:39.047Z,98570.66
2022-09-28T23:16:41.919Z,98566.97
2022-09-28T23:19:44.520Z,98564.88
2022-09-28T23:22:50.808Z,98562.66
2022-09-28T23:25:53.722Z,98571.69
2022-09-28T23:28:56.882Z,98573.16
2022-09-28T23:31:59.383Z,98580.97
2022-09-28T23:35:02.137Z,98579.94
2022-09-28T23:38:04.698Z,98582.81
2022-09-28T23:41:07.981Z,98581.41
2022-09-28T23:44:10.699Z,98572.12
2022-09-28T23:47:13.492Z,98573.97
2022-09-28T23:50:16.624Z,98565.16
2022-09-28T23:53:19.415Z,98574.81
2022-09-28T23:56:21.966Z,98565.53
2022-09-28T23:59:24.845Z,98567.41
